sensor_id;sensor_type;location;lat;lon;timestamp;P1;durP1;ratioP1;P2;durP2;ratioP2
64210;SDS011;72187;48.514;14.394;2023-08-21T00:00:17;11.70;;;10.50;;
64210;SDS011;72187;48.514;14.394;2023-08-21T00:01:11;11.40;;;10.20;;
64210;SDS011;72187;48.514;14.394;2023-08-21T00:01:44;11.50;;;10.30;;
64210;SDS011;72187;48.514;14.394;2023-08-21T00:02:18;11.50;;;10.30;;
64210;SDS011;72187;48.514;14.394;2023-08-21T00:02:55;12.90;;;10.30;;
64210;SDS011;72187;48.514;14.394;2023-08-21T00:03:29;11.90;;;10.60;;
64210;SDS011;72187;48.514;14.394;2023-08-21T00:04:03;14.10;;;10.50;;
64210;SDS011;72187;48.514;14.394;2023-08-21T00:04:37;11.40;;;10.10;;
64210;SDS011;72187;48.514;14.394;2023-08-21T00:05:10;12.70;;;10.30;;
64210;SDS011;72187;48.514;14.394;2023-08-21T00:05:44;11.50;;;9.80;;
64210;SDS011;72187;48.514;14.394;2023-08-21T00:06:17;13.90;;;10.20;;
64210;SDS011;72187;48.514;14.394;2023-08-21T00:06:51;11.80;;;10.10;;
64210;SDS011;72187;48.514;14.394;2023-08-21T00:07:24;11.50;;;9.70;;
64210;SDS011;72187;48.514;14.394;2023-08-21T00:07:58;12.70;;;9.60;;
64210;SDS011;72187;48.514;14.394;2023-08-21T00:08:31;11.70;;;9.80;;
64210;SDS011;72187;48.514;14.394;2023-08-21T00:09:04;10.70;;;9.60;;
64210;SDS011;72187;48.514;14.394;2023-08-21T00:09:38;10.10;;;8.90;;
64210;SDS011;72187;48.514;14.394;2023-08-21T00:10:11;11.70;;;9.30;;
64210;SDS011;72187;48.514;14.394;2023-08-21T00:10:47;10.90;;;9.00;;
64210;SDS011;72187;48.514;14.394;2023-08-21T00:11:21;10.70;;;9.60;;
64210;SDS011;72187;48.514;14.394;2023-08-21T00:11:57;10.20;;;9.20;;
64210;SDS011;72187;48.514;14.394;2023-08-21T00:12:35;10.60;;;9.00;;
64210;SDS011;72187;48.514;14.394;2023-08-21T00:13:12;10.90;;;9.40;;
64210;SDS011;72187;48.514;14.394;2023-08-21T00:13:45;11.00;;;9.30;;
64210;SDS011;72187;48.514;14.394;2023-08-21T00:14:20;11.90;;;9.30;;
64210;SDS011;72187;48.514;14.394;2023-08-21T00:14:54;11.50;;;9.50;;
64210;SDS011;72187;48.514;14.394;2023-08-21T00:15:27;11.50;;;9.30;;
64210;SDS011;72187;48.514;14.394;2023-08-21T00:16:01;10.10;;;9.10;;
64210;SDS011;72187;48.514;14.394;2023-08-21T00:16:35;12.00;;;9.60;;
64210;SDS011;72187;48.514;14.394;2023-08-21T00:17:08;11.30;;;9.80;;
64210;SDS011;72187;48.514;14.394;2023-08-21T00:17:42;11.30;;;9.80;;
64210;SDS011;72187;48.514;14.394;2023-08-21T00:18:15;11.30;;;10.20;;
64210;SDS011;72187;48.514;14.394;2023-08-21T00:18:49;10.70;;;9.60;;
64210;SDS011;72187;48.514;14.394;2023-08-21T00:19:22;11.30;;;10.00;;
64210;SDS011;72187;48.514;14.394;2023-08-21T00:19:56;11.30;;;10.10;;
64210;SDS011;72187;48.514;14.394;2023-08-21T00:20:29;13.60;;;10.00;;
64210;SDS011;72187;48.514;14.394;2023-08-21T00:21:03;11.20;;;10.00;;
64210;SDS011;72187;48.514;14.394;2023-08-21T00:21:37;11.10;;;9.90;;
64210;SDS011;72187;48.514;14.394;2023-08-21T00:22:12;11.70;;;10.60;;
64210;SDS011;72187;48.514;14.394;2023-08-21T00:22:46;14.40;;;9.80;;
64210;SDS011;72187;48.514;14.394;2023-08-21T00:23:19;12.90;;;10.70;;
64210;SDS011;72187;48.514;14.394;2023-08-21T00:23:53;12.30;;;10.60;;
64210;SDS011;72187;48.514;14.394;2023-08-21T00:24:28;12.30;;;10.20;;
64210;SDS011;72187;48.514;14.394;2023-08-21T00:25:01;14.00;;;10.80;;
64210;SDS011;72187;48.514;14.394;2023-08-21T00:25:35;14.70;;;10.70;;
64210;SDS011;72187;48.514;14.394;2023-08-21T00:26:09;14.40;;;10.50;;
64210;SDS011;72187;48.514;14.394;2023-08-21T00:26:43;11.80;;;10.60;;
64210;SDS011;72187;48.514;14.394;2023-08-21T00:27:18;12.30;;;10.00;;
64210;SDS011;72187;48.514;14.394;2023-08-21T00:27:52;11.00;;;9.90;;
64210;SDS011;72187;48.514;14.394;2023-08-21T00:28:26;12.40;;;10.60;;
64210;SDS011;72187;48.514;14.394;2023-08-21T00:29:00;11.10;;;10.00;;
64210;SDS011;72187;48.514;14.394;2023-08-21T00:29:34;11.50;;;10.40;;
64210;SDS011;72187;48.514;14.394;2023-08-21T00:30:08;11.70;;;10.60;;
64210;SDS011;72187;48.514;14.394;2023-08-21T00:30:42;12.00;;;10.50;;
64210;SDS011;72187;48.514;14.394;2023-08-21T00:31:15;12.00;;;10.50;;
64210;SDS011;72187;48.514;14.394;2023-08-21T00:31:49;11.80;;;9.80;;
64210;SDS011;72187;48.514;14.394;2023-08-21T00:32:22;12.70;;;10.70;;
64210;SDS011;72187;48.514;14.394;2023-08-21T00:32:56;11.60;;;10.40;;
64210;SDS011;72187;48.514;14.394;2023-08-21T00:33:31;12.80;;;10.60;;
64210;SDS011;72187;48.514;14.394;2023-08-21T00:34:06;12.10;;;10.80;;
64210;SDS011;72187;48.514;14.394;2023-08-21T00:34:40;13.30;;;10.50;;
64210;SDS011;72187;48.514;14.394;2023-08-21T00:35:14;11.60;;;10.40;;
64210;SDS011;72187;48.514;14.394;2023-08-21T00:35:48;12.10;;;10.40;;
64210;SDS011;72187;48.514;14.394;2023-08-21T00:36:22;11.90;;;10.40;;
64210;SDS011;72187;48.514;14.394;2023-08-21T00:36:55;12.90;;;10.50;;
64210;SDS011;72187;48.514;14.394;2023-08-21T00:37:29;12.00;;;10.70;;
64210;SDS011;72187;48.514;14.394;2023-08-21T00:38:02;11.60;;;10.40;;
64210;SDS011;72187;48.514;14.394;2023-08-21T00:38:36;10.70;;;9.60;;
64210;SDS011;72187;48.514;14.394;2023-08-21T00:39:10;10.60;;;9.50;;
64210;SDS011;72187;48.514;14.394;2023-08-21T00:39:44;13.30;;;9.40;;
64210;SDS011;72187;48.514;14.394;2023-08-21T00:40:18;11.60;;;9.30;;
64210;SDS011;72187;48.514;14.394;2023-08-21T00:40:51;10.20;;;9.20;;
64210;SDS011;72187;48.514;14.394;2023-08-21T00:41:25;12.10;;;9.80;;
64210;SDS011;72187;48.514;14.394;2023-08-21T00:41:59;10.70;;;9.60;;
64210;SDS011;72187;48.514;14.394;2023-08-21T00:42:33;11.90;;;9.60;;
64210;SDS011;72187;48.514;14.394;2023-08-21T00:43:08;10.80;;;9.70;;
64210;SDS011;72187;48.514;14.394;2023-08-21T00:43:41;10.60;;;9.50;;
64210;SDS011;72187;48.514;14.394;2023-08-21T00:44:16;11.30;;;9.40;;
64210;SDS011;72187;48.514;14.394;2023-08-21T00:44:50;10.70;;;9.50;;
64210;SDS011;72187;48.514;14.394;2023-08-21T00:45:23;10.50;;;9.40;;
64210;SDS011;72187;48.514;14.394;2023-08-21T00:45:57;13.50;;;10.20;;
64210;SDS011;72187;48.514;14.394;2023-08-21T00:46:31;11.10;;;9.90;;
64210;SDS011;72187;48.514;14.394;2023-08-21T00:47:05;11.70;;;9.80;;
64210;SDS011;72187;48.514;14.394;2023-08-21T00:47:39;12.00;;;10.10;;
64210;SDS011;72187;48.514;14.394;2023-08-21T00:48:14;11.50;;;10.30;;
64210;SDS011;72187;48.514;14.394;2023-08-21T00:48:48;11.40;;;10.20;;
64210;SDS011;72187;48.514;14.394;2023-08-21T00:49:21;11.60;;;10.40;;
64210;SDS011;72187;48.514;14.394;2023-08-21T00:49:55;11.60;;;10.20;;
64210;SDS011;72187;48.514;14.394;2023-08-21T00:50:31;12.10;;;10.20;;
64210;SDS011;72187;48.514;14.394;2023-08-21T00:51:05;11.10;;;9.90;;
64210;SDS011;72187;48.514;14.394;2023-08-21T00:51:40;11.80;;;10.60;;
64210;SDS011;72187;48.514;14.394;2023-08-21T00:52:13;11.40;;;9.80;;
64210;SDS011;72187;48.514;14.394;2023-08-21T00:52:49;11.90;;;9.70;;
64210;SDS011;72187;48.514;14.394;2023-08-21T00:53:23;11.30;;;10.00;;
64210;SDS011;72187;48.514;14.394;2023-08-21T00:53:57;12.10;;;10.20;;
64210;SDS011;72187;48.514;14.394;2023-08-21T00:54:31;11.50;;;9.80;;
64210;SDS011;72187;48.514;14.394;2023-08-21T00:55:06;12.20;;;10.30;;
64210;SDS011;72187;48.514;14.394;2023-08-21T00:55:40;14.20;;;10.90;;
64210;SDS011;72187;48.514;14.394;2023-08-21T00:56:15;12.80;;;10.30;;
64210;SDS011;72187;48.514;14.394;2023-08-21T00:56:49;11.40;;;10.30;;
64210;SDS011;72187;48.514;14.394;2023-08-21T00:57:25;11.50;;;10.20;;
64210;SDS011;72187;48.514;14.394;2023-08-21T00:57:59;13.80;;;10.50;;
64210;SDS011;72187;48.514;14.394;2023-08-21T00:58:36;14.90;;;10.90;;
64210;SDS011;72187;48.514;14.394;2023-08-21T00:59:09;11.70;;;10.20;;
64210;SDS011;72187;48.514;14.394;2023-08-21T00:59:44;12.10;;;10.00;;
64210;SDS011;72187;48.514;14.394;2023-08-21T01:00:18;11.80;;;10.70;;
64210;SDS011;72187;48.514;14.394;2023-08-21T01:00:52;11.10;;;10.00;;
64210;SDS011;72187;48.514;14.394;2023-08-21T01:01:26;11.40;;;10.00;;
64210;SDS011;72187;48.514;14.394;2023-08-21T01:02:02;11.30;;;10.10;;
64210;SDS011;72187;48.514;14.394;2023-08-21T01:02:36;11.90;;;10.00;;
64210;SDS011;72187;48.514;14.394;2023-08-21T01:03:10;12.20;;;10.00;;
64210;SDS011;72187;48.514;14.394;2023-08-21T01:03:43;11.30;;;10.00;;
64210;SDS011;72187;48.514;14.394;2023-08-21T01:04:17;10.90;;;9.90;;
64210;SDS011;72187;48.514;14.394;2023-08-21T01:04:51;13.00;;;10.00;;
64210;SDS011;72187;48.514;14.394;2023-08-21T01:05:25;11.20;;;10.20;;
64210;SDS011;72187;48.514;14.394;2023-08-21T01:05:58;11.70;;;10.00;;
64210;SDS011;72187;48.514;14.394;2023-08-21T01:06:32;12.80;;;10.00;;
64210;SDS011;72187;48.514;14.394;2023-08-21T01:07:05;12.10;;;10.30;;
64210;SDS011;72187;48.514;14.394;2023-08-21T01:07:53;11.10;;;9.90;;
64210;SDS011;72187;48.514;14.394;2023-08-21T01:09:44;13.00;;;9.80;;
64210;SDS011;72187;48.514;14.394;2023-08-21T01:10:45;11.00;;;9.90;;
64210;SDS011;72187;48.514;14.394;2023-08-21T01:11:24;11.20;;;10.10;;
64210;SDS011;72187;48.514;14.394;2023-08-21T01:12:50;12.60;;;9.80;;
64210;SDS011;72187;48.514;14.394;2023-08-21T01:14:53;11.30;;;10.10;;
64210;SDS011;72187;48.514;14.394;2023-08-21T01:15:32;11.40;;;10.20;;
64210;SDS011;72187;48.514;14.394;2023-08-21T01:16:06;11.40;;;10.20;;
64210;SDS011;72187;48.514;14.394;2023-08-21T01:16:41;14.30;;;10.70;;
64210;SDS011;72187;48.514;14.394;2023-08-21T01:17:20;11.40;;;10.30;;
64210;SDS011;72187;48.514;14.394;2023-08-21T01:17:55;11.60;;;10.40;;
64210;SDS011;72187;48.514;14.394;2023-08-21T01:18:30;12.10;;;10.70;;
64210;SDS011;72187;48.514;14.394;2023-08-21T01:19:07;11.30;;;10.20;;
64210;SDS011;72187;48.514;14.394;2023-08-21T01:19:58;12.50;;;10.20;;
64210;SDS011;72187;48.514;14.394;2023-08-21T01:20:33;11.70;;;10.30;;
64210;SDS011;72187;48.514;14.394;2023-08-21T01:21:06;13.30;;;10.20;;
64210;SDS011;72187;48.514;14.394;2023-08-21T01:21:41;11.10;;;10.00;;
64210;SDS011;72187;48.514;14.394;2023-08-21T01:22:14;10.90;;;9.90;;
64210;SDS011;72187;48.514;14.394;2023-08-21T01:22:48;11.90;;;10.60;;
64210;SDS011;72187;48.514;14.394;2023-08-21T01:23:29;13.00;;;10.20;;
64210;SDS011;72187;48.514;14.394;2023-08-21T01:24:07;11.50;;;10.40;;
64210;SDS011;72187;48.514;14.394;2023-08-21T01:24:40;12.30;;;10.40;;
64210;SDS011;72187;48.514;14.394;2023-08-21T01:25:13;13.60;;;10.30;;
64210;SDS011;72187;48.514;14.394;2023-08-21T01:25:49;12.00;;;10.70;;
64210;SDS011;72187;48.514;14.394;2023-08-21T01:26:22;12.30;;;10.60;;
64210;SDS011;72187;48.514;14.394;2023-08-21T01:26:55;11.50;;;10.30;;
64210;SDS011;72187;48.514;14.394;2023-08-21T01:27:29;11.60;;;10.60;;
64210;SDS011;72187;48.514;14.394;2023-08-21T01:28:03;11.20;;;10.10;;
64210;SDS011;72187;48.514;14.394;2023-08-21T01:28:36;12.00;;;10.60;;
64210;SDS011;72187;48.514;14.394;2023-08-21T01:29:10;11.00;;;9.80;;
64210;SDS011;72187;48.514;14.394;2023-08-21T01:29:47;12.30;;;10.50;;
64210;SDS011;72187;48.514;14.394;2023-08-21T01:30:23;13.00;;;10.30;;
64210;SDS011;72187;48.514;14.394;2023-08-21T01:31:14;12.10;;;10.40;;
64210;SDS011;72187;48.514;14.394;2023-08-21T01:33:18;15.20;;;10.00;;
64210;SDS011;72187;48.514;14.394;2023-08-21T01:33:54;11.20;;;10.10;;
64210;SDS011;72187;48.514;14.394;2023-08-21T01:34:33;14.40;;;10.60;;
64210;SDS011;72187;48.514;14.394;2023-08-21T01:35:08;11.70;;;10.60;;
64210;SDS011;72187;48.514;14.394;2023-08-21T01:35:44;11.90;;;10.40;;
64210;SDS011;72187;48.514;14.394;2023-08-21T01:36:20;11.40;;;10.20;;
64210;SDS011;72187;48.514;14.394;2023-08-21T01:36:54;11.40;;;10.30;;
64210;SDS011;72187;48.514;14.394;2023-08-21T01:37:30;11.00;;;9.80;;
64210;SDS011;72187;48.514;14.394;2023-08-21T01:38:04;11.60;;;10.50;;
64210;SDS011;72187;48.514;14.394;2023-08-21T01:38:38;11.40;;;10.10;;
64210;SDS011;72187;48.514;14.394;2023-08-21T01:39:12;11.30;;;10.10;;
64210;SDS011;72187;48.514;14.394;2023-08-21T01:39:47;11.70;;;10.30;;
64210;SDS011;72187;48.514;14.394;2023-08-21T01:40:21;14.30;;;10.10;;
64210;SDS011;72187;48.514;14.394;2023-08-21T01:40:55;10.60;;;9.50;;
64210;SDS011;72187;48.514;14.394;2023-08-21T01:41:29;11.60;;;9.70;;
64210;SDS011;72187;48.514;14.394;2023-08-21T01:42:02;11.20;;;10.10;;
64210;SDS011;72187;48.514;14.394;2023-08-21T01:42:37;11.10;;;9.70;;
64210;SDS011;72187;48.514;14.394;2023-08-21T01:43:11;11.30;;;10.20;;
64210;SDS011;72187;48.514;14.394;2023-08-21T01:43:44;11.40;;;9.90;;
64210;SDS011;72187;48.514;14.394;2023-08-21T01:44:18;12.60;;;10.10;;
64210;SDS011;72187;48.514;14.394;2023-08-21T01:44:51;11.40;;;9.80;;
64210;SDS011;72187;48.514;14.394;2023-08-21T01:45:25;11.50;;;10.30;;
64210;SDS011;72187;48.514;14.394;2023-08-21T01:46:00;11.10;;;10.00;;
64210;SDS011;72187;48.514;14.394;2023-08-21T01:46:35;13.80;;;10.30;;
64210;SDS011;72187;48.514;14.394;2023-08-21T01:47:12;11.00;;;9.80;;
64210;SDS011;72187;48.514;14.394;2023-08-21T01:47:45;10.80;;;9.50;;
64210;SDS011;72187;48.514;14.394;2023-08-21T01:48:19;11.50;;;9.90;;
64210;SDS011;72187;48.514;14.394;2023-08-21T01:48:52;12.60;;;10.10;;
64210;SDS011;72187;48.514;14.394;2023-08-21T01:51:17;12.80;;;9.90;;
64210;SDS011;72187;48.514;14.394;2023-08-21T01:51:50;12.90;;;9.20;;
64210;SDS011;72187;48.514;14.394;2023-08-21T01:52:24;12.80;;;9.60;;
64210;SDS011;72187;48.514;14.394;2023-08-21T01:52:58;11.60;;;9.80;;
64210;SDS011;72187;48.514;14.394;2023-08-21T01:53:32;11.00;;;9.70;;
64210;SDS011;72187;48.514;14.394;2023-08-21T01:54:06;12.90;;;9.40;;
64210;SDS011;72187;48.514;14.394;2023-08-21T01:54:40;10.70;;;9.50;;
64210;SDS011;72187;48.514;14.394;2023-08-21T01:55:15;13.20;;;9.60;;
64210;SDS011;72187;48.514;14.394;2023-08-21T01:55:48;10.40;;;9.30;;
64210;SDS011;72187;48.514;14.394;2023-08-21T01:56:22;11.20;;;9.70;;
64210;SDS011;72187;48.514;14.394;2023-08-21T01:56:56;11.80;;;9.40;;
64210;SDS011;72187;48.514;14.394;2023-08-21T01:57:30;11.30;;;9.60;;
64210;SDS011;72187;48.514;14.394;2023-08-21T01:58:03;10.60;;;9.40;;
64210;SDS011;72187;48.514;14.394;2023-08-21T01:58:37;10.80;;;9.70;;
64210;SDS011;72187;48.514;14.394;2023-08-21T01:59:10;12.70;;;9.60;;
64210;SDS011;72187;48.514;14.394;2023-08-21T01:59:44;11.60;;;9.80;;
64210;SDS011;72187;48.514;14.394;2023-08-21T02:00:17;10.50;;;9.40;;
64210;SDS011;72187;48.514;14.394;2023-08-21T02:00:52;11.00;;;9.50;;
64210;SDS011;72187;48.514;14.394;2023-08-21T02:01:26;12.30;;;9.60;;
64210;SDS011;72187;48.514;14.394;2023-08-21T02:02:00;12.40;;;9.70;;
64210;SDS011;72187;48.514;14.394;2023-08-21T02:02:34;12.40;;;10.10;;
64210;SDS011;72187;48.514;14.394;2023-08-21T02:03:07;12.60;;;10.20;;
64210;SDS011;72187;48.514;14.394;2023-08-21T02:03:41;10.90;;;9.60;;
64210;SDS011;72187;48.514;14.394;2023-08-21T02:04:14;11.20;;;10.10;;
64210;SDS011;72187;48.514;14.394;2023-08-21T02:04:50;11.00;;;9.90;;
64210;SDS011;72187;48.514;14.394;2023-08-21T02:05:23;12.00;;;10.00;;
64210;SDS011;72187;48.514;14.394;2023-08-21T02:05:57;11.40;;;10.20;;
64210;SDS011;72187;48.514;14.394;2023-08-21T02:06:37;11.80;;;10.50;;
64210;SDS011;72187;48.514;14.394;2023-08-21T02:07:12;12.10;;;10.80;;
64210;SDS011;72187;48.514;14.394;2023-08-21T02:07:46;12.00;;;10.60;;
64210;SDS011;72187;48.514;14.394;2023-08-21T02:08:19;13.00;;;10.20;;
64210;SDS011;72187;48.514;14.394;2023-08-21T02:08:54;12.00;;;10.60;;
64210;SDS011;72187;48.514;14.394;2023-08-21T02:09:27;13.50;;;11.10;;
64210;SDS011;72187;48.514;14.394;2023-08-21T02:10:01;12.60;;;11.10;;
64210;SDS011;72187;48.514;14.394;2023-08-21T02:10:35;11.40;;;10.20;;
64210;SDS011;72187;48.514;14.394;2023-08-21T02:11:08;11.80;;;10.50;;
64210;SDS011;72187;48.514;14.394;2023-08-21T02:11:42;16.70;;;10.20;;
64210;SDS011;72187;48.514;14.394;2023-08-21T02:12:15;10.60;;;9.40;;
64210;SDS011;72187;48.514;14.394;2023-08-21T02:12:49;12.00;;;9.70;;
64210;SDS011;72187;48.514;14.394;2023-08-21T02:13:23;11.00;;;9.80;;
64210;SDS011;72187;48.514;14.394;2023-08-21T02:13:56;10.80;;;9.30;;
64210;SDS011;72187;48.514;14.394;2023-08-21T02:14:30;11.00;;;9.80;;
64210;SDS011;72187;48.514;14.394;2023-08-21T02:15:04;10.50;;;9.20;;
64210;SDS011;72187;48.514;14.394;2023-08-21T02:15:38;11.40;;;9.40;;
64210;SDS011;72187;48.514;14.394;2023-08-21T02:16:11;13.80;;;9.30;;
64210;SDS011;72187;48.514;14.394;2023-08-21T02:16:46;11.50;;;9.30;;
64210;SDS011;72187;48.514;14.394;2023-08-21T02:17:21;11.20;;;9.50;;
64210;SDS011;72187;48.514;14.394;2023-08-21T02:17:54;10.90;;;9.70;;
64210;SDS011;72187;48.514;14.394;2023-08-21T02:18:28;10.70;;;9.60;;
64210;SDS011;72187;48.514;14.394;2023-08-21T02:19:03;11.00;;;9.60;;
64210;SDS011;72187;48.514;14.394;2023-08-21T02:19:36;12.10;;;9.20;;
64210;SDS011;72187;48.514;14.394;2023-08-21T02:20:10;10.80;;;9.40;;
64210;SDS011;72187;48.514;14.394;2023-08-21T02:20:44;10.90;;;9.80;;
64210;SDS011;72187;48.514;14.394;2023-08-21T02:21:18;10.60;;;9.10;;
64210;SDS011;72187;48.514;14.394;2023-08-21T02:21:51;10.90;;;9.80;;
64210;SDS011;72187;48.514;14.394;2023-08-21T02:22:25;10.90;;;9.80;;
64210;SDS011;72187;48.514;14.394;2023-08-21T02:23:00;14.10;;;10.00;;
64210;SDS011;72187;48.514;14.394;2023-08-21T02:23:34;13.10;;;10.30;;
64210;SDS011;72187;48.514;14.394;2023-08-21T02:24:07;11.20;;;10.00;;
64210;SDS011;72187;48.514;14.394;2023-08-21T02:24:44;14.50;;;10.90;;
64210;SDS011;72187;48.514;14.394;2023-08-21T02:25:17;13.90;;;10.60;;
64210;SDS011;72187;48.514;14.394;2023-08-21T02:25:53;14.70;;;10.90;;
64210;SDS011;72187;48.514;14.394;2023-08-21T02:26:26;11.60;;;10.50;;
64210;SDS011;72187;48.514;14.394;2023-08-21T02:27:00;12.20;;;10.90;;
64210;SDS011;72187;48.514;14.394;2023-08-21T02:27:36;12.00;;;10.80;;
64210;SDS011;72187;48.514;14.394;2023-08-21T02:28:10;12.10;;;10.90;;
64210;SDS011;72187;48.514;14.394;2023-08-21T02:28:43;12.20;;;10.50;;
64210;SDS011;72187;48.514;14.394;2023-08-21T02:29:17;12.40;;;10.40;;
64210;SDS011;72187;48.514;14.394;2023-08-21T02:29:50;11.60;;;10.40;;
64210;SDS011;72187;48.514;14.394;2023-08-21T02:30:24;13.70;;;9.90;;
64210;SDS011;72187;48.514;14.394;2023-08-21T02:30:58;10.30;;;9.10;;
64210;SDS011;72187;48.514;14.394;2023-08-21T02:31:32;11.70;;;9.30;;
64210;SDS011;72187;48.514;14.394;2023-08-21T02:32:05;10.20;;;9.20;;
64210;SDS011;72187;48.514;14.394;2023-08-21T02:32:39;11.00;;;9.10;;
64210;SDS011;72187;48.514;14.394;2023-08-21T02:33:13;10.80;;;9.60;;
64210;SDS011;72187;48.514;14.394;2023-08-21T02:33:48;10.20;;;9.20;;
64210;SDS011;72187;48.514;14.394;2023-08-21T02:34:24;10.60;;;9.40;;
64210;SDS011;72187;48.514;14.394;2023-08-21T02:34:57;10.70;;;9.50;;
64210;SDS011;72187;48.514;14.394;2023-08-21T02:35:31;10.80;;;9.60;;
64210;SDS011;72187;48.514;14.394;2023-08-21T02:36:04;10.20;;;9.20;;
64210;SDS011;72187;48.514;14.394;2023-08-21T02:36:40;10.10;;;8.90;;
64210;SDS011;72187;48.514;14.394;2023-08-21T02:37:13;11.60;;;9.20;;
64210;SDS011;72187;48.514;14.394;2023-08-21T02:37:47;10.50;;;9.30;;
64210;SDS011;72187;48.514;14.394;2023-08-21T02:38:20;12.20;;;10.20;;
64210;SDS011;72187;48.514;14.394;2023-08-21T02:38:55;10.30;;;9.20;;
64210;SDS011;72187;48.514;14.394;2023-08-21T02:39:28;11.30;;;9.20;;
64210;SDS011;72187;48.514;14.394;2023-08-21T02:40:02;12.70;;;9.20;;
64210;SDS011;72187;48.514;14.394;2023-08-21T02:40:36;10.70;;;9.60;;
64210;SDS011;72187;48.514;14.394;2023-08-21T02:41:09;11.70;;;9.60;;
64210;SDS011;72187;48.514;14.394;2023-08-21T02:41:42;10.50;;;9.30;;
64210;SDS011;72187;48.514;14.394;2023-08-21T02:42:16;11.20;;;10.00;;
64210;SDS011;72187;48.514;14.394;2023-08-21T02:42:49;10.80;;;9.60;;
64210;SDS011;72187;48.514;14.394;2023-08-21T02:43:23;12.90;;;10.40;;
64210;SDS011;72187;48.514;14.394;2023-08-21T02:43:56;13.40;;;10.00;;
64210;SDS011;72187;48.514;14.394;2023-08-21T02:44:29;13.20;;;10.10;;
64210;SDS011;72187;48.514;14.394;2023-08-21T02:45:03;12.20;;;10.50;;
64210;SDS011;72187;48.514;14.394;2023-08-21T02:45:41;12.80;;;10.20;;
64210;SDS011;72187;48.514;14.394;2023-08-21T02:46:14;11.40;;;9.90;;
64210;SDS011;72187;48.514;14.394;2023-08-21T02:46:48;11.80;;;10.10;;
64210;SDS011;72187;48.514;14.394;2023-08-21T02:47:22;10.80;;;9.80;;
64210;SDS011;72187;48.514;14.394;2023-08-21T02:47:55;12.10;;;10.20;;
64210;SDS011;72187;48.514;14.394;2023-08-21T02:48:29;11.20;;;9.90;;
64210;SDS011;72187;48.514;14.394;2023-08-21T02:49:02;11.40;;;10.30;;
64210;SDS011;72187;48.514;14.394;2023-08-21T02:49:36;14.20;;;10.70;;
64210;SDS011;72187;48.514;14.394;2023-08-21T02:50:09;15.10;;;11.20;;
64210;SDS011;72187;48.514;14.394;2023-08-21T02:50:43;12.90;;;10.50;;
64210;SDS011;72187;48.514;14.394;2023-08-21T02:51:16;12.10;;;10.90;;
64210;SDS011;72187;48.514;14.394;2023-08-21T02:51:50;11.70;;;10.50;;
64210;SDS011;72187;48.514;14.394;2023-08-21T02:52:23;11.90;;;10.50;;
64210;SDS011;72187;48.514;14.394;2023-08-21T02:52:56;11.90;;;10.70;;
64210;SDS011;72187;48.514;14.394;2023-08-21T02:53:30;11.30;;;10.20;;
64210;SDS011;72187;48.514;14.394;2023-08-21T02:54:03;12.00;;;10.80;;
64210;SDS011;72187;48.514;14.394;2023-08-21T02:54:38;12.30;;;11.00;;
64210;SDS011;72187;48.514;14.394;2023-08-21T02:55:13;11.80;;;10.70;;
64210;SDS011;72187;48.514;14.394;2023-08-21T02:55:47;13.80;;;10.30;;
64210;SDS011;72187;48.514;14.394;2023-08-21T02:56:20;16.50;;;11.10;;
64210;SDS011;72187;48.514;14.394;2023-08-21T02:56:54;12.70;;;11.30;;
64210;SDS011;72187;48.514;14.394;2023-08-21T02:57:27;12.70;;;11.00;;
64210;SDS011;72187;48.514;14.394;2023-08-21T02:58:01;13.30;;;11.20;;
64210;SDS011;72187;48.514;14.394;2023-08-21T02:58:35;12.20;;;11.10;;
64210;SDS011;72187;48.514;14.394;2023-08-21T02:59:09;13.10;;;11.70;;
64210;SDS011;72187;48.514;14.394;2023-08-21T02:59:42;15.00;;;11.40;;
64210;SDS011;72187;48.514;14.394;2023-08-21T03:00:16;11.50;;;10.40;;
64210;SDS011;72187;48.514;14.394;2023-08-21T03:00:50;13.80;;;11.00;;
64210;SDS011;72187;48.514;14.394;2023-08-21T03:01:23;11.70;;;10.50;;
64210;SDS011;72187;48.514;14.394;2023-08-21T03:01:57;12.60;;;11.00;;
64210;SDS011;72187;48.514;14.394;2023-08-21T03:02:30;14.10;;;10.90;;
64210;SDS011;72187;48.514;14.394;2023-08-21T03:03:05;12.20;;;10.90;;
64210;SDS011;72187;48.514;14.394;2023-08-21T03:03:38;12.90;;;10.40;;
64210;SDS011;72187;48.514;14.394;2023-08-21T03:04:12;12.60;;;10.40;;
64210;SDS011;72187;48.514;14.394;2023-08-21T03:04:45;15.30;;;10.50;;
64210;SDS011;72187;48.514;14.394;2023-08-21T03:05:19;11.60;;;10.60;;
64210;SDS011;72187;48.514;14.394;2023-08-21T03:05:52;12.60;;;10.80;;
64210;SDS011;72187;48.514;14.394;2023-08-21T03:06:26;12.20;;;10.40;;
64210;SDS011;72187;48.514;14.394;2023-08-21T03:06:59;12.30;;;11.10;;
64210;SDS011;72187;48.514;14.394;2023-08-21T03:07:33;12.00;;;10.20;;
64210;SDS011;72187;48.514;14.394;2023-08-21T03:08:07;11.60;;;10.30;;
64210;SDS011;72187;48.514;14.394;2023-08-21T03:08:40;12.80;;;10.10;;
64210;SDS011;72187;48.514;14.394;2023-08-21T03:09:16;12.30;;;10.70;;
64210;SDS011;72187;48.514;14.394;2023-08-21T03:09:49;12.00;;;9.90;;
64210;SDS011;72187;48.514;14.394;2023-08-21T03:10:23;15.00;;;11.10;;
64210;SDS011;72187;48.514;14.394;2023-08-21T03:10:57;12.00;;;10.70;;
64210;SDS011;72187;48.514;14.394;2023-08-21T03:11:30;12.20;;;11.00;;
64210;SDS011;72187;48.514;14.394;2023-08-21T03:12:04;15.40;;;10.90;;
64210;SDS011;72187;48.514;14.394;2023-08-21T03:12:39;11.10;;;10.10;;
64210;SDS011;72187;48.514;14.394;2023-08-21T03:13:13;12.40;;;11.00;;
64210;SDS011;72187;48.514;14.394;2023-08-21T03:13:51;11.80;;;10.60;;
64210;SDS011;72187;48.514;14.394;2023-08-21T03:14:25;13.80;;;10.40;;
64210;SDS011;72187;48.514;14.394;2023-08-21T03:15:00;11.80;;;10.50;;
64210;SDS011;72187;48.514;14.394;2023-08-21T03:15:34;11.70;;;10.60;;
64210;SDS011;72187;48.514;14.394;2023-08-21T03:16:08;13.90;;;11.20;;
64210;SDS011;72187;48.514;14.394;2023-08-21T03:16:41;12.70;;;11.30;;
64210;SDS011;72187;48.514;14.394;2023-08-21T03:17:15;12.50;;;11.10;;
64210;SDS011;72187;48.514;14.394;2023-08-21T03:17:48;12.90;;;11.70;;
64210;SDS011;72187;48.514;14.394;2023-08-21T03:18:22;13.40;;;11.60;;
64210;SDS011;72187;48.514;14.394;2023-08-21T03:18:56;12.50;;;11.30;;
64210;SDS011;72187;48.514;14.394;2023-08-21T03:19:33;12.70;;;10.90;;
64210;SDS011;72187;48.514;14.394;2023-08-21T03:20:07;13.00;;;11.60;;
64210;SDS011;72187;48.514;14.394;2023-08-21T03:20:45;12.30;;;11.10;;
64210;SDS011;72187;48.514;14.394;2023-08-21T03:21:19;12.40;;;10.80;;
64210;SDS011;72187;48.514;14.394;2023-08-21T03:21:52;12.10;;;10.80;;
64210;SDS011;72187;48.514;14.394;2023-08-21T03:22:26;13.00;;;10.50;;
64210;SDS011;72187;48.514;14.394;2023-08-21T03:22:59;12.10;;;10.20;;
64210;SDS011;72187;48.514;14.394;2023-08-21T03:23:36;12.00;;;10.00;;
64210;SDS011;72187;48.514;14.394;2023-08-21T03:24:10;10.50;;;9.40;;
64210;SDS011;72187;48.514;14.394;2023-08-21T03:24:44;10.70;;;9.60;;
64210;SDS011;72187;48.514;14.394;2023-08-21T03:25:17;10.70;;;9.20;;
64210;SDS011;72187;48.514;14.394;2023-08-21T03:25:54;10.20;;;9.10;;
64210;SDS011;72187;48.514;14.394;2023-08-21T03:26:27;11.30;;;9.60;;